createdAt,value
2019-02-17T00:01:01.508Z,33.35
2019-02-17T00:03:28.559Z,29.90
2019-02-17T00:05:55.694Z,32.60
2019-02-17T00:08:22.714Z,37.58
2019-02-17T00:10:49.746Z,30.88
2019-02-17T00:13:16.803Z,31.45
2019-02-17T00:15:43.837Z,37.00
2019-02-17T00:18:10.874Z,30.95
2019-02-17T00:20:37.922Z,27.27
2019-02-17T00:23:04.963Z,30.10
2019-02-17T00:25:32.007Z,25.20
2019-02-17T00:27:59.032Z,23.30
2019-02-17T00:30:26.049Z,32.33
2019-02-17T00:32:53.086Z,26.17
2019-02-17T00:35:20.113Z,28.92
2019-02-17T00:37:47.163Z,36.83
2019-02-17T00:40:14.292Z,28.90
2019-02-17T00:42:41.374Z,30.25
2019-02-17T00:45:08.470Z,32.45
2019-02-17T00:47:35.518Z,36.85
2019-02-17T00:50:02.787Z,37.00
2019-02-17T00:52:29.873Z,27.70
2019-02-17T00:54:56.940Z,29.67
2019-02-17T00:57:23.974Z,32.28
2019-02-17T00:59:51.003Z,34.08
2019-02-17T01:02:18.048Z,25.12
2019-02-17T01:04:45.085Z,25.57
2019-02-17T01:07:12.134Z,31.73
2019-02-17T01:09:39.138Z,27.25
2019-02-17T01:12:06.159Z,26.20
2019-02-17T01:14:33.203Z,27.52
2019-02-17T01:17:00.255Z,29.02
2019-02-17T01:19:27.297Z,22.93
2019-02-17T01:21:54.328Z,31.70
2019-02-17T01:24:21.359Z,26.40
2019-02-17T01:26:48.378Z,23.45
2019-02-17T01:29:20.450Z,19.60
2019-02-17T01:31:44.473Z,28.98
2019-02-17T01:34:11.489Z,18.45
2019-02-17T01:36:38.522Z,25.48
2019-02-17T01:39:06.025Z,29.00
2019-02-17T01:41:33.067Z,29.02
2019-02-17T01:44:00.093Z,31.17
2019-02-17T01:46:27.131Z,26.62
2019-02-17T01:48:54.181Z,29.92
2019-02-17T01:51:21.206Z,32.05
2019-02-17T01:53:48.255Z,34.23
2019-02-17T01:56:15.285Z,35.75
2019-02-17T01:58:42.301Z,37.45
2019-02-17T02:01:09.324Z,38.30
2019-02-17T02:03:36.376Z,28.80
2019-02-17T02:06:03.521Z,27.77
2019-02-17T02:08:30.566Z,35.73
2019-02-17T02:10:57.590Z,30.92
2019-02-17T02:13:24.634Z,27.62
2019-02-17T02:15:51.677Z,32.80
2019-02-17T02:18:18.729Z,27.82
2019-02-17T02:20:45.737Z,27.62
2019-02-17T02:23:12.797Z,29.63
2019-02-17T02:25:39.837Z,31.70
2019-02-17T02:28:06.863Z,32.15
2019-02-17T02:30:33.873Z,29.40
2019-02-17T02:33:00.908Z,35.10
2019-02-17T02:35:27.955Z,28.35
2019-02-17T02:37:54.979Z,26.57
2019-02-17T02:40:22.007Z,31.10
2019-02-17T02:42:49.046Z,33.20
2019-02-17T02:45:16.090Z,29.75
2019-02-17T02:47:43.119Z,29.57
2019-02-17T02:50:10.871Z,27.95
2019-02-17T02:52:37.900Z,29.65
2019-02-17T02:55:05.078Z,30.60
2019-02-17T02:57:32.103Z,26.25
2019-02-17T02:59:59.144Z,21.93
2019-02-17T03:02:26.183Z,33.10
2019-02-17T03:04:53.212Z,28.23
2019-02-17T03:07:21.303Z,40.35
2019-02-17T03:09:48.319Z,25.70
2019-02-17T03:12:15.379Z,24.02
2019-02-17T03:14:42.420Z,26.27
2019-02-17T03:17:09.515Z,25.37
2019-02-17T03:19:36.550Z,25.70
2019-02-17T03:22:03.606Z,26.42
2019-02-17T03:24:30.628Z,25.12
2019-02-17T03:26:57.705Z,26.27
2019-02-17T03:29:24.709Z,29.72
2019-02-17T03:31:51.725Z,24.87
2019-02-17T03:34:18.761Z,22.40
2019-02-17T03:36:45.805Z,20.70
2019-02-17T03:39:12.861Z,24.25
2019-02-17T03:41:39.893Z,25.57
2019-02-17T03:44:06.920Z,17.80
2019-02-17T03:46:33.942Z,24.07
2019-02-17T03:49:01.027Z,18.17
2019-02-17T03:51:28.048Z,21.35
2019-02-17T03:53:55.089Z,21.77
2019-02-17T03:56:22.106Z,22.40
2019-02-17T03:58:49.150Z,21.62
2019-02-17T04:01:16.191Z,18.17
2019-02-17T04:03:43.219Z,18.77
2019-02-17T04:06:10.238Z,22.58
2019-02-17T04:08:39.262Z,21.90
2019-02-17T04:11:06.290Z,21.52
2019-02-17T04:13:33.338Z,22.85
2019-02-17T04:16:00.362Z,21.52
2019-02-17T04:18:27.405Z,21.77
2019-02-17T04:20:54.443Z,19.60
2019-02-17T04:23:31.019Z,20.00
2019-02-17T04:25:53.465Z,15.00
2019-02-17T04:28:20.496Z,17.60
2019-02-17T04:30:47.549Z,19.75
2019-02-17T04:33:14.602Z,21.15
2019-02-17T04:35:41.631Z,18.12
2019-02-17T04:38:08.667Z,19.73
2019-02-17T04:40:35.689Z,22.85
2019-02-17T04:43:02.739Z,19.25
2019-02-17T04:45:29.763Z,19.65
2019-02-17T04:47:56.793Z,17.67
2019-02-17T04:50:23.817Z,17.65
2019-02-17T04:52:50.873Z,22.30
2019-02-17T04:55:17.846Z,27.73
2019-02-17T04:57:44.912Z,23.20
2019-02-17T05:00:12.058Z,22.40
2019-02-17T05:02:39.146Z,18.90
2019-02-17T05:05:06.356Z,21.55
2019-02-17T05:07:33.401Z,14.28
2019-02-17T05:10:00.438Z,17.35
2019-02-17T05:12:27.472Z,20.02
2019-02-17T05:14:54.499Z,15.18
2019-02-17T05:17:21.533Z,13.55
2019-02-17T05:19:48.601Z,16.12
2019-02-17T05:22:15.622Z,19.87
2019-02-17T05:24:42.660Z,16.93
2019-02-17T05:27:09.683Z,23.42
2019-02-17T05:29:36.745Z,15.93
2019-02-17T05:32:03.767Z,19.27
2019-02-17T05:34:30.809Z,18.82
2019-02-17T05:36:57.835Z,16.45
2019-02-17T05:39:24.912Z,18.57
2019-02-17T05:41:51.948Z,13.88
2019-02-17T05:44:18.980Z,24.27
2019-02-17T05:46:46.007Z,14.65
2019-02-17T05:49:13.043Z,19.37
2019-02-17T05:51:40.089Z,21.85
2019-02-17T05:54:07.126Z,25.37
2019-02-17T05:56:34.165Z,25.90
2019-02-17T05:59:01.208Z,26.60
2019-02-17T06:01:28.233Z,20.57
2019-02-17T06:03:55.274Z,22.55
2019-02-17T06:06:22.292Z,25.80
2019-02-17T06:08:49.325Z,30.62
2019-02-17T06:11:16.391Z,22.62
2019-02-17T06:13:43.429Z,26.37
2019-02-17T06:16:10.476Z,15.43
2019-02-17T06:18:37.529Z,23.45
2019-02-17T06:21:04.589Z,17.65
2019-02-17T06:23:31.644Z,19.95
2019-02-17T06:25:58.689Z,16.85
2019-02-17T06:28:25.733Z,17.57
2019-02-17T06:30:52.777Z,16.20
2019-02-17T06:33:19.834Z,13.43
2019-02-17T06:35:46.868Z,21.42
2019-02-17T06:38:13.911Z,22.60
2019-02-17T06:40:40.940Z,19.48
2019-02-17T06:43:08.069Z,20.52
2019-02-17T06:45:35.103Z,19.62
2019-02-17T06:48:02.199Z,23.85
2019-02-17T06:50:29.272Z,30.48
2019-02-17T06:52:56.317Z,38.38
2019-02-17T06:55:45.832Z,34.08
2019-02-17T06:58:12.882Z,27.45
2019-02-17T07:00:42.842Z,27.42
2019-02-17T07:03:09.898Z,23.83
2019-02-17T07:05:42.704Z,32.50
2019-02-17T07:08:10.504Z,34.85
2019-02-17T07:10:37.551Z,33.30
2019-02-17T07:13:04.595Z,25.72
2019-02-17T07:15:31.667Z,20.48
2019-02-17T07:17:59.257Z,26.25
2019-02-17T07:20:26.442Z,31.05
2019-02-17T07:22:53.504Z,38.53
2019-02-17T07:25:29.683Z,36.42
2019-02-17T07:27:49.504Z,35.05
2019-02-17T07:30:16.528Z,42.33
2019-02-17T07:32:43.559Z,31.52
2019-02-17T07:35:10.635Z,32.53
2019-02-17T07:37:37.689Z,24.77
2019-02-17T07:40:04.855Z,26.40
2019-02-17T07:42:31.949Z,23.62
2019-02-17T07:44:58.996Z,23.90
2019-02-17T07:47:26.034Z,25.37
2019-02-17T07:49:53.072Z,20.45
2019-02-17T07:52:20.110Z,23.85
2019-02-17T07:54:47.151Z,30.05
2019-02-17T07:57:14.199Z,26.70
2019-02-17T07:59:41.225Z,19.65
2019-02-17T08:02:08.272Z,20.10
2019-02-17T08:04:35.316Z,18.48
2019-02-17T08:07:02.350Z,16.57
2019-02-17T08:09:29.379Z,16.85
2019-02-17T08:11:56.409Z,20.70
2019-02-17T08:14:23.505Z,28.50
2019-02-17T08:16:50.567Z,21.20
2019-02-17T08:19:17.588Z,20.48
2019-02-17T08:21:44.632Z,20.55
2019-02-17T08:24:11.685Z,22.98
2019-02-17T08:26:38.746Z,26.00
2019-02-17T08:29:05.778Z,16.50
2019-02-17T08:31:32.846Z,13.78
2019-02-17T08:33:59.920Z,15.80
2019-02-17T08:36:26.976Z,15.90
2019-02-17T08:38:54.003Z,21.15
2019-02-17T08:41:21.076Z,25.30
2019-02-17T08:43:48.115Z,16.30
2019-02-17T08:46:15.178Z,19.15
2019-02-17T08:48:42.235Z,21.97
2019-02-17T08:51:09.265Z,14.47
2019-02-17T08:53:36.307Z,18.85
2019-02-17T08:56:03.373Z,16.40
2019-02-17T08:58:30.415Z,15.53
2019-02-17T09:00:57.505Z,13.60
2019-02-17T09:03:24.563Z,16.95
2019-02-17T09:05:51.616Z,18.67
2019-02-17T09:08:18.663Z,16.55
2019-02-17T09:10:45.705Z,39.42
2019-02-17T09:13:12.808Z,22.55
2019-02-17T09:15:39.839Z,20.37
2019-02-17T09:18:06.918Z,17.07
2019-02-17T09:20:33.969Z,20.37
2019-02-17T09:23:01.055Z,18.40
2019-02-17T09:25:28.105Z,22.35
2019-02-17T09:27:55.179Z,15.38
2019-02-17T09:30:22.215Z,16.77
2019-02-17T09:32:49.314Z,15.48
2019-02-17T09:35:16.350Z,14.13
2019-02-17T09:37:43.396Z,12.98
2019-02-17T09:40:10.740Z,14.43
2019-02-17T09:42:37.779Z,18.15
2019-02-17T09:45:05.227Z,11.63
2019-02-17T09:47:32.270Z,12.75
2019-02-17T09:49:59.351Z,11.20
2019-02-17T09:52:26.453Z,11.08
2019-02-17T09:54:53.520Z,9.48
2019-02-17T09:57:20.727Z,6.12
2019-02-17T09:59:47.812Z,7.40
2019-02-17T10:02:14.862Z,118.70
2019-02-17T10:04:41.910Z,35.63
2019-02-17T10:07:08.935Z,26.33
2019-02-17T10:09:41.784Z,16.27
2019-02-17T10:12:09.032Z,15.20
2019-02-17T10:14:36.108Z,15.20
2019-02-17T10:17:03.233Z,17.82
2019-02-17T10:19:30.251Z,16.50
2019-02-17T10:21:57.296Z,11.68
2019-02-17T10:24:24.478Z,13.18
2019-02-17T10:26:51.555Z,9.43
2019-02-17T10:29:18.638Z,10.93
2019-02-17T10:31:45.698Z,8.55
2019-02-17T10:34:12.740Z,7.37
2019-02-17T10:36:39.844Z,63.78
2019-02-17T10:39:06.910Z,23.15
2019-02-17T10:41:33.983Z,12.85
2019-02-17T10:44:01.056Z,12.70
2019-02-17T10:46:28.190Z,12.40
2019-02-17T10:48:55.232Z,14.10
2019-02-17T10:51:22.298Z,8.90
2019-02-17T10:53:49.381Z,6.92
2019-02-17T10:56:16.446Z,5.63
2019-02-17T10:58:43.533Z,9.43
2019-02-17T11:01:10.590Z,5.90
2019-02-17T11:03:37.683Z,9.70
2019-02-17T11:06:04.750Z,6.40
2019-02-17T11:08:31.832Z,12.10
2019-02-17T11:10:58.902Z,6.07
2019-02-17T11:13:26.013Z,7.73
2019-02-17T11:15:53.037Z,33.57
2019-02-17T11:18:20.126Z,6.43
2019-02-17T11:20:47.306Z,8.23
2019-02-17T11:23:14.412Z,6.00
2019-02-17T11:25:41.539Z,7.83
2019-02-17T11:28:08.643Z,7.83
2019-02-17T11:30:35.737Z,5.80
2019-02-17T11:33:02.966Z,12.60
2019-02-17T11:35:30.153Z,5.50
2019-02-17T11:37:57.215Z,9.03
2019-02-17T11:40:24.354Z,6.33
2019-02-17T11:42:51.552Z,5.13
2019-02-17T11:45:18.622Z,6.30
2019-02-17T11:47:45.703Z,7.40
2019-02-17T11:50:12.813Z,6.37
2019-02-17T11:52:39.884Z,5.13
2019-02-17T11:55:10.728Z,5.17
2019-02-17T11:57:37.969Z,7.00
2019-02-17T12:00:08.338Z,5.10
2019-02-17T12:02:35.416Z,6.37
2019-02-17T12:05:02.491Z,4.03
2019-02-17T12:07:29.556Z,5.80
2019-02-17T12:09:56.651Z,6.20
2019-02-17T12:12:23.714Z,6.40
2019-02-17T12:14:50.807Z,4.10
2019-02-17T12:17:17.890Z,5.40
2019-02-17T12:19:44.980Z,3.77
2019-02-17T12:22:17.444Z,8.20
2019-02-17T12:25:00.054Z,5.80
2019-02-17T12:27:46.998Z,4.47
2019-02-17T12:30:17.746Z,4.63
2019-02-17T12:32:44.865Z,4.97
2019-02-17T12:35:11.977Z,4.07
2019-02-17T12:37:39.043Z,4.80
2019-02-17T12:40:09.622Z,3.97
2019-02-17T12:42:36.670Z,4.53
2019-02-17T12:45:03.942Z,4.90
2019-02-17T12:47:31.097Z,5.93
2019-02-17T12:49:58.174Z,4.03
2019-02-17T12:52:25.305Z,3.73
2019-02-17T12:54:52.352Z,4.87
2019-02-17T12:57:19.421Z,8.70
2019-02-17T12:59:46.503Z,4.30
2019-02-17T13:02:13.580Z,3.90
2019-02-17T13:04:40.648Z,6.57
2019-02-17T13:07:07.743Z,10.60
2019-02-17T13:09:34.824Z,13.00
2019-02-17T13:12:01.938Z,3.90
2019-02-17T13:14:29.045Z,3.60
2019-02-17T13:16:56.118Z,5.23
2019-02-17T13:19:23.194Z,3.47
2019-02-17T13:21:50.246Z,7.83
2019-02-17T13:24:17.292Z,9.20
2019-02-17T13:26:44.386Z,4.53
2019-02-17T13:29:11.447Z,6.37
2019-02-17T13:31:38.521Z,4.27
2019-02-17T13:34:05.620Z,4.17
2019-02-17T13:36:32.707Z,8.17
2019-02-17T13:38:59.775Z,4.13
2019-02-17T13:41:27.017Z,5.83
2019-02-17T13:43:54.083Z,7.23
2019-02-17T13:46:21.180Z,5.20
2019-02-17T13:48:48.277Z,5.47
2019-02-17T13:51:15.373Z,6.70
2019-02-17T13:53:42.473Z,14.10
2019-02-17T13:56:09.551Z,6.37
2019-02-17T13:58:36.633Z,6.07
2019-02-17T14:01:03.703Z,3.57
2019-02-17T14:03:30.759Z,2.77
2019-02-17T14:05:57.852Z,3.80
2019-02-17T14:08:24.948Z,5.03
2019-02-17T14:11:04.622Z,6.83
2019-02-17T14:13:31.722Z,5.03
2019-02-17T14:15:58.822Z,7.00
2019-02-17T14:18:25.890Z,6.90
2019-02-17T14:21:05.698Z,5.00
2019-02-17T14:23:32.762Z,7.80
2019-02-17T14:25:59.838Z,5.70
2019-02-17T14:28:26.935Z,6.70
2019-02-17T14:30:54.023Z,5.90
2019-02-17T14:33:21.144Z,6.60
2019-02-17T14:35:48.176Z,11.77
2019-02-17T14:38:15.326Z,9.27
2019-02-17T14:40:42.410Z,6.53
2019-02-17T14:43:09.536Z,6.20
2019-02-17T14:45:36.624Z,6.07
2019-02-17T14:48:03.743Z,5.10
2019-02-17T14:50:30.813Z,6.70
2019-02-17T14:52:57.910Z,6.30
2019-02-17T14:55:27.076Z,5.50
2019-02-17T14:57:54.168Z,8.07
2019-02-17T15:00:21.347Z,5.57
2019-02-17T15:02:48.454Z,6.13
2019-02-17T15:05:15.583Z,6.17
2019-02-17T15:07:42.716Z,6.40
2019-02-17T15:10:09.812Z,6.53
2019-02-17T15:12:37.036Z,6.50
2019-02-17T15:15:04.357Z,7.73
2019-02-17T15:17:31.486Z,6.33
2019-02-17T15:19:58.645Z,8.47
2019-02-17T15:22:25.790Z,8.47
2019-02-17T15:24:52.906Z,7.43
2019-02-17T15:27:20.025Z,6.23
2019-02-17T15:29:47.129Z,7.00
2019-02-17T15:32:14.238Z,6.33
2019-02-17T15:34:41.347Z,6.60
2019-02-17T15:37:08.468Z,7.53
2019-02-17T15:39:35.598Z,11.23
2019-02-17T15:42:02.735Z,9.27
2019-02-17T15:44:29.865Z,9.50
2019-02-17T15:46:56.993Z,8.73
2019-02-17T15:49:24.086Z,6.47
2019-02-17T15:51:51.233Z,5.37
2019-02-17T15:54:18.379Z,6.53
2019-02-17T15:56:45.531Z,5.00
2019-02-17T15:59:12.691Z,8.20
2019-02-17T16:01:52.421Z,6.03
2019-02-17T16:04:32.588Z,6.43
2019-02-17T16:07:12.682Z,5.27
2019-02-17T16:09:39.872Z,5.30
2019-02-17T16:12:07.005Z,8.80
2019-02-17T16:14:34.119Z,12.20
2019-02-17T16:17:01.199Z,10.60
2019-02-17T16:19:28.561Z,6.23
2019-02-17T16:21:55.686Z,10.33
2019-02-17T16:24:24.529Z,21.33
2019-02-17T16:26:51.655Z,11.20
2019-02-17T16:29:18.821Z,9.68
2019-02-17T16:31:46.164Z,6.35
2019-02-17T16:34:13.338Z,9.30
2019-02-17T16:36:40.701Z,20.95
2019-02-17T16:39:29.399Z,16.90
2019-02-17T16:41:56.892Z,13.68
2019-02-17T16:44:24.106Z,10.20
2019-02-17T16:46:51.661Z,7.53
2019-02-17T16:49:19.159Z,11.45
2019-02-17T16:51:46.367Z,8.03
2019-02-17T16:54:13.736Z,10.08
2019-02-17T16:56:40.880Z,7.03
2019-02-17T16:59:08.378Z,9.30
2019-02-17T17:01:35.603Z,6.60
2019-02-17T17:04:02.917Z,6.40
2019-02-17T17:06:30.111Z,8.50
2019-02-17T17:08:57.283Z,6.70
2019-02-17T17:11:24.638Z,7.87
2019-02-17T17:13:52.859Z,8.63
2019-02-17T17:16:21.016Z,9.75
2019-02-17T17:18:48.200Z,8.38
2019-02-17T17:21:15.670Z,9.38
2019-02-17T17:23:42.893Z,10.93
2019-02-17T17:26:10.074Z,10.08
2019-02-17T17:28:37.282Z,7.78
2019-02-17T17:31:04.496Z,8.53
2019-02-17T17:33:31.947Z,8.65
2019-02-17T17:35:59.133Z,8.70
2019-02-17T17:38:26.282Z,10.80
2019-02-17T17:40:53.643Z,9.40
2019-02-17T17:43:21.094Z,9.98
2019-02-17T17:45:48.744Z,12.20
2019-02-17T17:48:15.946Z,12.95
2019-02-17T17:50:43.311Z,16.12
2019-02-17T17:53:11.326Z,14.70
2019-02-17T17:55:38.875Z,13.25
2019-02-17T17:58:06.163Z,23.22
2019-02-17T18:00:34.459Z,17.25
2019-02-17T18:03:02.143Z,14.47
2019-02-17T18:05:30.650Z,15.10
2019-02-17T18:07:57.865Z,15.58
2019-02-17T18:10:25.159Z,13.72
2019-02-17T18:12:52.629Z,21.70
2019-02-17T18:15:20.290Z,18.00
2019-02-17T18:17:54.264Z,18.73
2019-02-17T18:20:17.661Z,19.30
2019-02-17T18:22:47.584Z,15.45
2019-02-17T18:25:15.276Z,19.42
2019-02-17T18:27:42.834Z,20.65
2019-02-17T18:30:13.120Z,22.05
2019-02-17T18:32:40.556Z,17.67
2019-02-17T18:35:08.291Z,16.00
2019-02-17T18:37:35.729Z,15.90
2019-02-17T18:40:04.206Z,20.08
2019-02-17T18:42:31.993Z,23.20
2019-02-17T18:44:59.525Z,20.92
2019-02-17T18:47:26.815Z,26.40
2019-02-17T18:49:54.303Z,28.60
2019-02-17T18:52:21.809Z,33.10
2019-02-17T18:54:50.971Z,31.10
2019-02-17T18:57:18.429Z,29.20
2019-02-17T18:59:45.934Z,25.70
2019-02-17T19:02:13.459Z,24.87
2019-02-17T19:04:41.680Z,21.00
2019-02-17T19:07:09.356Z,23.50
2019-02-17T19:09:36.790Z,21.27
2019-02-17T19:12:04.098Z,21.87
2019-02-17T19:14:31.491Z,26.82
2019-02-17T19:16:59.640Z,28.40
2019-02-17T19:19:27.854Z,25.40
2019-02-17T19:21:55.100Z,30.62
2019-02-17T19:24:22.482Z,33.08
2019-02-17T19:26:49.917Z,35.15
2019-02-17T19:29:19.462Z,28.98
2019-02-17T19:31:48.145Z,29.60
2019-02-17T19:34:16.299Z,33.30
2019-02-17T19:36:44.539Z,27.85
2019-02-17T19:39:17.825Z,28.83
2019-02-17T19:41:46.047Z,29.37
2019-02-17T19:44:13.931Z,30.25
2019-02-17T19:46:41.768Z,37.30
2019-02-17T19:49:11.456Z,32.50
2019-02-17T19:51:38.829Z,35.13
2019-02-17T19:54:06.444Z,45.12
2019-02-17T19:56:33.924Z,53.75
2019-02-17T19:59:01.402Z,56.90
2019-02-17T20:01:28.769Z,58.50
2019-02-17T20:04:20.689Z,54.55
2019-02-17T20:06:48.962Z,63.73
2019-02-17T20:09:18.160Z,57.40
2019-02-17T20:11:48.102Z,56.23
2019-02-17T20:14:15.813Z,52.38
2019-02-17T20:16:45.305Z,47.25
2019-02-17T20:19:15.714Z,48.30
2019-02-17T20:21:43.813Z,46.20
2019-02-17T20:24:11.198Z,47.90
2019-02-17T20:26:38.461Z,52.43
2019-02-17T20:29:05.752Z,55.20
2019-02-17T20:31:33.107Z,48.98
2019-02-17T20:34:01.750Z,48.68
2019-02-17T20:36:29.283Z,57.40
2019-02-17T20:38:57.535Z,51.05
2019-02-17T20:41:24.809Z,52.70
2019-02-17T20:43:52.074Z,46.28
2019-02-17T20:46:26.590Z,56.13
2019-02-17T20:48:53.771Z,48.60
2019-02-17T20:51:21.342Z,64.30
2019-02-17T20:53:48.494Z,54.77
2019-02-17T20:56:15.674Z,56.88
2019-02-17T20:58:44.218Z,47.85
2019-02-17T21:01:12.881Z,58.78
2019-02-17T21:03:40.075Z,52.50
2019-02-17T21:06:12.802Z,47.05
2019-02-17T21:08:37.845Z,53.20
2019-02-17T21:11:05.857Z,46.45
2019-02-17T21:13:33.323Z,46.73
2019-02-17T21:16:00.437Z,56.83
2019-02-17T21:18:27.602Z,48.90
2019-02-17T21:20:54.763Z,46.70
2019-02-17T21:23:21.895Z,47.78
2019-02-17T21:25:49.353Z,39.60
2019-02-17T21:28:16.905Z,42.00
2019-02-17T21:30:44.006Z,40.58
2019-02-17T21:33:11.149Z,41.83
2019-02-17T21:35:38.382Z,44.75
2019-02-17T21:38:05.522Z,42.33
2019-02-17T21:40:32.641Z,42.13
2019-02-17T21:43:00.187Z,36.95
2019-02-17T21:45:27.303Z,39.33
2019-02-17T21:47:54.849Z,41.13
2019-02-17T21:50:21.946Z,41.30
2019-02-17T21:52:49.061Z,41.35
2019-02-17T21:55:16.162Z,46.70
2019-02-17T21:57:44.576Z,36.42
2019-02-17T22:00:14.015Z,39.95
2019-02-17T22:02:41.201Z,43.65
2019-02-17T22:05:08.292Z,41.48
2019-02-17T22:07:35.381Z,42.93
2019-02-17T22:10:02.500Z,44.50
2019-02-17T22:12:29.597Z,44.70
2019-02-17T22:14:56.682Z,43.48
2019-02-17T22:17:23.847Z,46.65
2019-02-17T22:19:50.893Z,38.85
2019-02-17T22:22:17.977Z,35.08
2019-02-17T22:24:45.131Z,39.83
2019-02-17T22:27:12.187Z,38.63
2019-02-17T22:29:39.223Z,34.65
2019-02-17T22:32:06.305Z,35.28
2019-02-17T22:34:33.353Z,35.05
2019-02-17T22:37:00.375Z,32.88
2019-02-17T22:39:27.417Z,37.08
2019-02-17T22:41:54.460Z,30.70
2019-02-17T22:44:21.475Z,29.37
2019-02-17T22:46:48.525Z,35.85
2019-02-17T22:49:15.567Z,42.10
2019-02-17T22:51:42.594Z,40.73
2019-02-17T22:54:09.628Z,29.98
2019-02-17T22:56:36.686Z,38.85
2019-02-17T22:59:03.725Z,39.42
2019-02-17T23:01:32.515Z,35.20
2019-02-17T23:03:59.565Z,36.40
2019-02-17T23:06:27.459Z,29.32
2019-02-17T23:08:54.504Z,36.73
2019-02-17T23:11:21.560Z,31.42
2019-02-17T23:13:48.586Z,37.40
2019-02-17T23:16:15.631Z,35.05
2019-02-17T23:18:44.533Z,33.45
2019-02-17T23:21:11.607Z,30.82
2019-02-17T23:23:38.664Z,33.67
2019-02-17T23:26:05.706Z,30.97
2019-02-17T23:28:32.754Z,32.75
2019-02-17T23:30:59.772Z,35.73
2019-02-17T23:33:26.800Z,73.05
2019-02-17T23:35:53.844Z,41.10
2019-02-17T23:38:20.878Z,36.28
2019-02-17T23:40:47.893Z,33.15
2019-02-17T23:43:14.934Z,34.33
2019-02-17T23:45:42.011Z,44.08
2019-02-17T23:48:08.997Z,31.50
2019-02-17T23:50:36.038Z,31.52
2019-02-17T23:53:03.076Z,33.83
2019-02-17T23:55:30.129Z,32.28
2019-02-17T23:57:57.156Z,30.17
